Terminal Aerodrome Forecast
Issued by NWS

Home | Current Version | Previous Version | Graphics & Text | Print | Product List | Glossary On
Versions: 1 2 3 4 5 6 7 8 9 10 11 12 13 14 15 16 17 18 19 20 21 22 23 24 25 26 27
000
FTUS45 KGGW 222300
TAFOLF
TAF
KOLF 222322Z 2300/2324 26009KT P6SM SCT070
     FM230500 27013KT 6SM -SHSN BLSN BKN040
     FM230800 29018KT P6SM VCSH OVC025
     FM231200 31020G30KT 4SM -SN BLSN OVC025
     FM231700 32019G29KT P6SM OVC030=

USA.gov is the U.S. government's official web portal to all federal, state and local government web resources and services.